createdAt,value
2022-10-22T00:02:20.561Z,13.31
2022-10-22T00:04:48.964Z,13.25
2022-10-22T00:07:17.143Z,13.25
2022-10-22T00:09:43.787Z,13.32
2022-10-22T00:12:10.828Z,13.28
2022-10-22T00:14:38.094Z,13.25
2022-10-22T00:17:06.916Z,13.22
2022-10-22T00:19:38.804Z,13.21
2022-10-22T00:22:06.152Z,13.19
2022-10-22T00:24:34.121Z,13.14
2022-10-22T00:27:01.256Z,13.11
2022-10-22T00:29:27.858Z,13.10
2022-10-22T00:34:22.411Z,13.07
2022-10-22T00:36:50.341Z,13.04
2022-10-22T00:39:18.541Z,13.04
2022-10-22T00:41:46.976Z,13.01
2022-10-22T00:44:51.305Z,12.97
2022-10-22T00:47:18.708Z,12.95
2022-10-22T00:49:46.782Z,12.90
2022-10-22T00:52:14.244Z,12.88
2022-10-22T00:54:42.218Z,12.79
2022-10-22T00:57:09.147Z,12.74
2022-10-22T00:59:37.196Z,12.67
2022-10-22T01:02:04.442Z,12.59
2022-10-22T01:04:31.038Z,12.53
2022-10-22T01:06:57.615Z,12.46
2022-10-22T01:09:39.011Z,12.46
2022-10-22T01:12:33.288Z,12.43
2022-10-22T01:15:10.596Z,12.39
2022-10-22T01:18:00.482Z,12.42
2022-10-22T01:20:29.980Z,12.44
2022-10-22T01:23:24.196Z,12.53
2022-10-22T01:26:00.389Z,12.49
2022-10-22T01:29:04.191Z,12.49
2022-10-22T01:31:36.209Z,12.50
2022-10-22T01:34:04.283Z,12.49
2022-10-22T01:36:32.985Z,12.49
2022-10-22T01:39:01.884Z,12.44
2022-10-22T01:41:29.262Z,12.42
2022-10-22T01:43:55.926Z,12.43
2022-10-22T01:46:24.546Z,12.40
2022-10-22T01:49:13.851Z,12.37
2022-10-22T01:52:26.669Z,12.34
2022-10-22T01:55:25.828Z,12.30
2022-10-22T01:58:07.815Z,12.26
2022-10-22T02:00:38.484Z,12.22
2022-10-22T02:03:18.673Z,12.21
2022-10-22T02:05:59.419Z,12.16
2022-10-22T02:08:30.857Z,12.13
2022-10-22T02:10:59.562Z,12.06
2022-10-22T02:13:50.241Z,12.03
2022-10-22T02:16:24.702Z,12.06
2022-10-22T02:18:54.290Z,12.05
2022-10-22T02:21:21.606Z,12.05
2022-10-22T02:23:48.392Z,12.03
2022-10-22T02:26:25.102Z,12.03
2022-10-22T02:29:01.707Z,12.03
2022-10-22T02:31:31.566Z,12.03
2022-10-22T02:34:02.490Z,12.05
2022-10-22T02:36:29.195Z,12.06
2022-10-22T02:38:56.312Z,12.09
2022-10-22T02:41:23.402Z,12.11
2022-10-22T02:43:54.380Z,12.09
2022-10-22T02:46:21.564Z,12.11
2022-10-22T02:48:48.198Z,12.06
2022-10-22T02:51:15.070Z,12.08
2022-10-22T02:53:41.663Z,12.06
2022-10-22T02:56:08.861Z,12.03
2022-10-22T02:58:35.398Z,12.01
2022-10-22T03:01:02.088Z,12.09
2022-10-22T03:03:28.747Z,12.05
2022-10-22T03:05:55.179Z,12.03
2022-10-22T03:08:21.728Z,12.01
2022-10-22T03:10:48.234Z,11.99
2022-10-22T03:13:14.767Z,11.96
2022-10-22T03:15:41.321Z,11.98
2022-10-22T03:18:07.798Z,11.96
2022-10-22T03:20:34.277Z,11.98
2022-10-22T03:23:02.128Z,11.98
2022-10-22T03:25:31.073Z,12.01
2022-10-22T03:28:02.915Z,12.03
2022-10-22T03:30:29.545Z,12.06
2022-10-22T03:32:56.113Z,12.11
2022-10-22T03:35:22.810Z,12.12
2022-10-22T03:37:49.740Z,12.11
2022-10-22T03:40:17.174Z,12.11
2022-10-22T03:42:44.116Z,12.08
2022-10-22T03:45:11.083Z,12.05
2022-10-22T03:47:38.025Z,12.03
2022-10-22T03:50:06.114Z,12.02
2022-10-22T03:52:37.317Z,11.98
2022-10-22T03:55:05.714Z,11.96
2022-10-22T03:57:32.241Z,11.96
2022-10-22T03:59:58.829Z,11.94
2022-10-22T04:02:25.478Z,11.94
2022-10-22T04:04:52.065Z,11.94
2022-10-22T04:07:18.509Z,11.94
2022-10-22T04:09:45.006Z,11.94
2022-10-22T04:12:12.196Z,11.92
2022-10-22T04:14:38.706Z,11.92
2022-10-22T04:17:05.267Z,11.92
2022-10-22T04:19:31.753Z,11.94
2022-10-22T04:21:59.740Z,12.09
2022-10-22T04:24:27.188Z,12.09
2022-10-22T04:26:54.768Z,12.12
2022-10-22T04:29:21.427Z,12.08
2022-10-22T04:31:47.873Z,12.21
2022-10-22T04:34:14.268Z,12.33
2022-10-22T04:36:40.823Z,12.37
2022-10-22T04:39:07.380Z,12.33
2022-10-22T04:41:36.774Z,12.34
2022-10-22T04:44:03.972Z,12.37
2022-10-22T04:46:32.721Z,12.30
2022-10-22T04:48:59.744Z,12.32
2022-10-22T04:51:27.248Z,12.28
2022-10-22T04:53:54.114Z,12.32
2022-10-22T04:56:27.236Z,12.28
2022-10-22T04:58:56.522Z,12.25
2022-10-22T05:01:36.983Z,12.22
2022-10-22T05:04:07.646Z,12.40
2022-10-22T05:06:36.794Z,12.34
2022-10-22T05:09:10.827Z,12.28
2022-10-22T05:11:41.792Z,12.29
2022-10-22T05:14:10.012Z,12.22
2022-10-22T05:16:38.124Z,12.21
2022-10-22T05:19:05.812Z,12.18
2022-10-22T05:21:32.292Z,12.16
2022-10-22T05:24:02.182Z,12.11
2022-10-22T05:26:29.115Z,12.02
2022-10-22T05:28:56.055Z,11.98
2022-10-22T05:31:22.668Z,11.94
2022-10-22T05:33:49.375Z,11.89
2022-10-22T05:36:20.658Z,11.82
2022-10-22T05:38:47.671Z,11.88
2022-10-22T05:41:17.029Z,11.86
2022-10-22T05:43:43.858Z,11.92
2022-10-22T05:46:13.230Z,11.96
2022-10-22T05:48:39.904Z,11.92
2022-10-22T05:51:11.953Z,11.89
2022-10-22T05:53:41.303Z,11.85
2022-10-22T05:56:14.247Z,11.84
2022-10-22T05:58:41.186Z,11.84
2022-10-22T06:01:17.868Z,11.92
2022-10-22T06:03:45.793Z,11.94
2022-10-22T06:06:19.659Z,11.91
2022-10-22T06:08:51.549Z,11.91
2022-10-22T06:11:19.543Z,11.91
2022-10-22T06:13:47.603Z,11.92
2022-10-22T06:16:14.585Z,11.96
2022-10-22T06:18:41.432Z,11.96
2022-10-22T06:21:13.611Z,12.02
2022-10-22T06:23:41.123Z,12.05
2022-10-22T06:26:08.484Z,12.15
2022-10-22T06:28:37.248Z,12.21
2022-10-22T06:31:04.481Z,12.25
2022-10-22T06:33:34.094Z,12.28
2022-10-22T06:36:18.082Z,12.34
2022-10-22T06:38:44.694Z,12.36
2022-10-22T06:41:16.251Z,12.37
2022-10-22T06:43:47.726Z,12.36
2022-10-22T06:46:20.233Z,12.39
2022-10-22T06:48:55.214Z,12.40
2022-10-22T06:51:21.754Z,12.40
2022-10-22T06:53:48.801Z,12.42
2022-10-22T06:56:18.482Z,12.46
2022-10-22T06:58:50.305Z,12.52
2022-10-22T07:01:19.128Z,12.54
2022-10-22T07:03:45.772Z,12.61
2022-10-22T07:06:14.657Z,12.68
2022-10-22T07:08:42.465Z,12.76
2022-10-22T07:11:15.117Z,12.81
2022-10-22T07:13:41.945Z,12.88
2022-10-22T07:16:09.694Z,12.94
2022-10-22T07:18:37.851Z,12.98
2022-10-22T07:21:05.450Z,13.02
2022-10-22T07:23:31.945Z,13.11
2022-10-22T07:25:59.061Z,13.10
2022-10-22T07:28:25.670Z,13.11
2022-10-22T07:30:52.199Z,13.15
2022-10-22T07:33:18.731Z,13.19
2022-10-22T07:35:45.211Z,13.25
2022-10-22T07:38:11.618Z,13.28
2022-10-22T07:40:38.362Z,13.34
2022-10-22T07:43:05.009Z,13.35
2022-10-22T07:45:31.871Z,13.38
2022-10-22T07:47:59.547Z,13.41
2022-10-22T07:50:26.466Z,13.52
2022-10-22T07:52:54.859Z,13.49
2022-10-22T07:55:23.932Z,13.53
2022-10-22T07:57:50.449Z,13.61
2022-10-22T08:00:19.447Z,13.70
2022-10-22T08:02:48.399Z,13.74
2022-10-22T08:05:16.393Z,13.76
2022-10-22T08:07:43.519Z,13.72
2022-10-22T08:10:11.919Z,13.69
2022-10-22T08:12:41.527Z,13.80
2022-10-22T08:15:08.951Z,13.84
2022-10-22T08:17:36.764Z,13.90
2022-10-22T08:20:03.817Z,13.91
2022-10-22T08:22:30.450Z,13.91
2022-10-22T08:24:57.006Z,14.00
2022-10-22T08:27:23.523Z,14.00
2022-10-22T08:29:50.765Z,14.02
2022-10-22T08:32:17.306Z,14.00
2022-10-22T08:34:43.892Z,14.02
2022-10-22T08:37:14.131Z,14.04
2022-10-22T08:39:41.314Z,14.16
2022-10-22T08:42:33.035Z,14.18
2022-10-22T08:45:44.415Z,14.28
2022-10-22T08:48:38.894Z,14.52
2022-10-22T08:51:05.790Z,14.64
2022-10-22T08:53:41.606Z,14.75
2022-10-22T08:56:08.219Z,14.86
2022-10-22T08:58:53.524Z,14.88
2022-10-22T09:01:25.659Z,14.95
2022-10-22T09:04:01.164Z,14.92
2022-10-22T09:06:31.560Z,14.81
2022-10-22T09:09:00.281Z,14.88
2022-10-22T09:11:32.612Z,14.78
2022-10-22T09:14:00.177Z,14.75
2022-10-22T09:16:36.710Z,14.85
2022-10-22T09:19:35.605Z,14.89
2022-10-22T09:22:14.290Z,14.89
2022-10-22T09:24:52.068Z,14.95
2022-10-22T09:27:23.606Z,15.06
2022-10-22T09:29:50.153Z,15.20
2022-10-22T09:32:17.877Z,15.39
2022-10-22T09:34:46.331Z,15.51
2022-10-22T09:37:15.881Z,15.72
2022-10-22T09:39:48.003Z,15.95
2022-10-22T09:42:16.973Z,16.15
2022-10-22T09:44:47.709Z,16.08
2022-10-22T09:47:42.826Z,15.94
2022-10-22T09:50:23.010Z,15.71
2022-10-22T09:53:20.449Z,15.77
2022-10-22T09:55:53.741Z,15.54
2022-10-22T09:58:20.756Z,15.53
2022-10-22T10:00:57.708Z,15.60
2022-10-22T10:03:29.395Z,15.68
2022-10-22T10:06:02.993Z,15.55
2022-10-22T10:08:32.442Z,15.39
2022-10-22T10:11:06.084Z,15.39
2022-10-22T10:13:45.361Z,15.32
2022-10-22T10:16:30.526Z,15.44
2022-10-22T10:19:20.889Z,15.41
2022-10-22T10:22:05.869Z,15.53
2022-10-22T10:25:14.609Z,15.61
2022-10-22T10:27:47.473Z,15.82
2022-10-22T10:30:18.197Z,15.87
2022-10-22T10:33:20.025Z,16.05
2022-10-22T10:35:56.744Z,16.26
2022-10-22T10:38:58.107Z,16.43
2022-10-22T10:41:43.321Z,16.55
2022-10-22T10:44:20.825Z,16.70
2022-10-22T10:46:55.158Z,16.79
2022-10-22T10:49:27.188Z,16.67
2022-10-22T10:52:10.382Z,16.71
2022-10-22T10:55:00.642Z,16.62
2022-10-22T10:57:47.205Z,16.83
2022-10-22T11:00:20.171Z,16.87
2022-10-22T11:03:30.569Z,17.34
2022-10-22T11:06:01.601Z,17.56
2022-10-22T11:08:36.625Z,18.00
2022-10-22T11:11:12.821Z,17.75
2022-10-22T11:13:51.441Z,17.86
2022-10-22T11:16:26.980Z,18.16
2022-10-22T11:19:06.100Z,18.21
2022-10-22T11:21:41.301Z,18.06
2022-10-22T11:24:07.802Z,18.23
2022-10-22T11:26:43.984Z,18.14
2022-10-22T11:29:29.459Z,17.78
2022-10-22T11:32:01.237Z,18.11
2022-10-22T11:34:34.281Z,18.26
2022-10-22T11:37:04.775Z,18.33
2022-10-22T11:40:05.250Z,18.45
2022-10-22T11:42:38.075Z,18.43
2022-10-22T11:45:06.714Z,18.69
2022-10-22T11:47:41.966Z,18.43
2022-10-22T11:50:26.813Z,18.55
2022-10-22T11:53:07.733Z,19.05
2022-10-22T11:55:45.419Z,19.10
2022-10-22T11:58:50.816Z,18.87
2022-10-22T12:01:26.469Z,18.92
2022-10-22T12:04:12.994Z,18.73
2022-10-22T12:06:59.338Z,18.44
2022-10-22T12:09:30.057Z,18.26
2022-10-22T12:12:04.586Z,18.09
2022-10-22T12:14:50.546Z,17.69
2022-10-22T12:17:18.084Z,17.72
2022-10-22T12:19:51.145Z,17.68
2022-10-22T12:22:32.286Z,17.62
2022-10-22T12:25:06.094Z,17.68
2022-10-22T12:27:41.028Z,17.73
2022-10-22T12:30:29.499Z,18.04
2022-10-22T12:32:58.511Z,18.54
2022-10-22T12:35:28.154Z,19.12
2022-10-22T12:37:57.174Z,19.54
2022-10-22T12:40:26.493Z,19.87
2022-10-22T12:42:56.639Z,20.08
2022-10-22T12:45:26.566Z,19.94
2022-10-22T12:47:57.809Z,19.80
2022-10-22T12:50:37.473Z,19.95
2022-10-22T12:53:15.046Z,19.78
2022-10-22T12:55:41.988Z,19.66
2022-10-22T12:58:08.653Z,19.64
2022-10-22T13:00:35.863Z,19.50
2022-10-22T13:03:05.797Z,20.00
2022-10-22T13:05:38.874Z,20.83
2022-10-22T13:08:10.427Z,21.31
2022-10-22T13:10:40.586Z,22.02
2022-10-22T13:13:07.382Z,22.63
2022-10-22T13:15:37.547Z,22.70
2022-10-22T13:18:07.370Z,23.11
2022-10-22T13:20:37.273Z,23.55
2022-10-22T13:23:06.179Z,23.77
2022-10-22T13:25:35.614Z,23.55
2022-10-22T13:28:19.504Z,23.77
2022-10-22T13:31:16.273Z,23.77
2022-10-22T13:33:45.842Z,23.53
2022-10-22T13:36:16.826Z,23.28
2022-10-22T13:38:44.135Z,22.77
2022-10-22T13:44:12.131Z,22.68
2022-10-22T13:46:42.563Z,22.39
2022-10-22T13:49:22.446Z,22.24
2022-10-22T13:51:50.817Z,22.57
2022-10-22T13:54:20.981Z,22.61
2022-10-22T13:56:47.508Z,22.29
2022-10-22T13:59:15.375Z,22.06
2022-10-22T14:01:45.555Z,21.69
2022-10-22T14:04:14.561Z,21.98
2022-10-22T14:06:41.070Z,21.93
2022-10-22T14:09:13.365Z,21.65
2022-10-22T14:11:39.889Z,21.69
2022-10-22T14:14:08.976Z,21.31
2022-10-22T14:16:37.413Z,21.44
2022-10-22T14:19:07.247Z,21.63
2022-10-22T14:21:37.087Z,21.48
2022-10-22T14:24:05.986Z,21.35
2022-10-22T14:26:35.058Z,21.12
2022-10-22T14:29:10.999Z,21.01
2022-10-22T14:31:43.416Z,21.03
2022-10-22T14:34:12.188Z,20.87
2022-10-22T14:36:38.982Z,20.87
2022-10-22T14:39:05.487Z,20.73
2022-10-22T14:41:31.950Z,20.57
2022-10-22T14:43:59.742Z,20.40
2022-10-22T14:46:26.296Z,20.35
2022-10-22T14:48:52.786Z,20.14
2022-10-22T14:51:21.373Z,20.00
2022-10-22T14:53:48.026Z,19.75
2022-10-22T14:56:17.387Z,19.63
2022-10-22T14:58:45.506Z,19.46
2022-10-22T15:01:12.520Z,19.26
2022-10-22T15:03:39.014Z,19.05
2022-10-22T15:06:06.050Z,18.94
2022-10-22T15:08:32.955Z,18.61
2022-10-22T15:11:01.847Z,18.30
2022-10-22T15:13:29.220Z,18.07
2022-10-22T15:15:57.027Z,17.86
2022-10-22T15:18:23.875Z,17.71
2022-10-22T15:21:00.653Z,17.53
2022-10-22T15:23:27.639Z,17.34
2022-10-22T15:25:54.450Z,17.18
2022-10-22T15:28:21.166Z,17.00
2022-10-22T15:30:53.147Z,16.87
2022-10-22T15:33:19.841Z,16.74
2022-10-22T15:35:46.369Z,16.62
2022-10-22T15:38:12.939Z,16.49
2022-10-22T15:40:39.517Z,16.39
2022-10-22T15:43:06.002Z,16.25
2022-10-22T15:45:32.501Z,16.12
2022-10-22T15:47:58.996Z,16.00
2022-10-22T15:50:25.555Z,15.87
2022-10-22T15:52:52.154Z,15.70
2022-10-22T15:55:18.824Z,15.55
2022-10-22T15:57:45.869Z,15.43
2022-10-22T16:00:13.003Z,15.32
2022-10-22T16:02:40.572Z,15.22
2022-10-22T16:05:07.629Z,15.12
2022-10-22T16:07:34.088Z,15.04
2022-10-22T16:10:01.594Z,14.91
2022-10-22T16:12:28.147Z,14.79
2022-10-22T16:14:54.608Z,14.68
2022-10-22T16:17:21.264Z,14.61
2022-10-22T16:19:48.178Z,14.49
2022-10-22T16:22:15.611Z,14.40
2022-10-22T16:24:42.213Z,14.28
2022-10-22T16:27:09.265Z,14.28
2022-10-22T16:29:38.348Z,14.18
2022-10-22T16:32:05.294Z,14.11
2022-10-22T16:34:31.923Z,14.06
2022-10-22T16:36:58.514Z,13.96
2022-10-22T16:39:25.303Z,13.93
2022-10-22T16:41:51.977Z,13.84
2022-10-22T16:44:18.656Z,13.74
2022-10-22T16:46:45.256Z,13.69
2022-10-22T16:49:11.856Z,13.62
2022-10-22T16:51:39.253Z,13.52
2022-10-22T16:54:08.351Z,13.49
2022-10-22T16:56:38.035Z,13.41
2022-10-22T16:59:04.583Z,13.34
2022-10-22T17:01:31.472Z,13.26
2022-10-22T17:04:01.559Z,13.24
2022-10-22T17:06:28.638Z,13.21
2022-10-22T17:08:55.262Z,13.15
2022-10-22T17:11:23.790Z,13.12
2022-10-22T17:13:52.701Z,13.12
2022-10-22T17:16:21.624Z,13.18
2022-10-22T17:18:48.988Z,13.21
2022-10-22T17:21:16.256Z,13.24
2022-10-22T17:23:42.813Z,13.25
2022-10-22T17:26:14.750Z,13.29
2022-10-22T17:28:41.436Z,13.28
2022-10-22T17:31:37.316Z,13.22
2022-10-22T17:34:06.422Z,13.29
2022-10-22T17:36:35.866Z,13.26
2022-10-22T17:39:06.358Z,13.24
2022-10-22T17:41:36.233Z,13.22
2022-10-22T17:44:05.640Z,13.15
2022-10-22T17:46:32.733Z,13.18
2022-10-22T17:49:01.790Z,13.22
2022-10-22T17:51:29.839Z,13.35
2022-10-22T17:53:56.708Z,13.39
2022-10-22T17:56:29.792Z,13.58
2022-10-22T17:58:56.613Z,13.53
2022-10-22T18:01:28.421Z,13.48
2022-10-22T18:03:59.873Z,13.39
2022-10-22T18:06:26.580Z,13.35
2022-10-22T18:11:22.966Z,13.55
2022-10-22T18:13:53.615Z,13.56
2022-10-22T18:16:20.588Z,13.58
2022-10-22T18:18:49.567Z,13.63
2022-10-22T18:21:17.496Z,13.70
2022-10-22T18:23:45.007Z,13.76
2022-10-22T18:26:11.992Z,14.03
2022-10-22T18:28:38.468Z,14.06
2022-10-22T18:31:07.104Z,14.25
2022-10-22T18:33:34.927Z,14.38
2022-10-22T18:36:06.916Z,14.42
2022-10-22T18:38:33.754Z,14.38
2022-10-22T18:41:00.300Z,14.25
2022-10-22T18:43:27.289Z,14.20
2022-10-22T18:45:53.842Z,14.25
2022-10-22T18:48:22.824Z,14.16
2022-10-22T18:50:59.427Z,14.03
2022-10-22T18:53:26.402Z,13.91
2022-10-22T18:55:53.121Z,13.74
2022-10-22T18:58:19.735Z,13.66
2022-10-22T19:00:46.281Z,13.55
2022-10-22T19:03:14.227Z,13.43
2022-10-22T19:05:52.158Z,13.32
2022-10-22T19:08:19.916Z,13.21
2022-10-22T19:10:48.142Z,13.14
2022-10-22T19:13:16.465Z,13.04
2022-10-22T19:15:43.093Z,12.95
2022-10-22T19:18:10.055Z,12.84
2022-10-22T19:20:36.949Z,12.76
2022-10-22T19:23:04.269Z,12.70
2022-10-22T19:25:30.829Z,12.74
2022-10-22T19:27:57.392Z,12.77
2022-10-22T19:30:24.248Z,12.65
2022-10-22T19:32:50.867Z,12.60
2022-10-22T19:35:17.544Z,12.53
2022-10-22T19:37:48.206Z,12.54
2022-10-22T19:40:15.493Z,12.50
2022-10-22T19:42:44.207Z,12.47
2022-10-22T19:45:11.150Z,12.42
2022-10-22T19:47:37.774Z,12.34
2022-10-22T19:50:04.534Z,12.32
2022-10-22T19:52:30.990Z,12.40
2022-10-22T19:54:57.478Z,12.61
2022-10-22T19:57:24.045Z,12.84
2022-10-22T19:59:50.896Z,12.98
2022-10-22T20:02:18.394Z,13.11
2022-10-22T20:04:49.212Z,13.19
2022-10-22T20:07:16.967Z,13.36
2022-10-22T20:09:43.491Z,13.59
2022-10-22T20:12:09.999Z,13.62
2022-10-22T20:14:37.416Z,13.66
2022-10-22T20:17:04.079Z,13.86
2022-10-22T20:19:30.760Z,14.00
2022-10-22T20:21:57.229Z,13.96
2022-10-22T20:24:23.749Z,13.99
2022-10-22T20:26:50.164Z,14.02
2022-10-22T20:29:18.997Z,14.07
2022-10-22T20:31:46.574Z,14.00
2022-10-22T20:34:13.540Z,14.10
2022-10-22T20:36:41.487Z,14.10
2022-10-22T20:39:11.867Z,14.10
2022-10-22T20:41:40.352Z,14.07
2022-10-22T20:44:11.190Z,14.10
2022-10-22T20:46:37.646Z,14.14
2022-10-22T20:49:15.860Z,14.20
2022-10-22T20:51:42.884Z,14.20
2022-10-22T20:54:10.516Z,14.20
2022-10-22T20:56:38.693Z,14.27
2022-10-22T20:59:07.997Z,14.28
2022-10-22T21:01:39.055Z,14.25
2022-10-22T21:04:06.608Z,14.17
2022-10-22T21:06:34.257Z,14.10
2022-10-22T21:09:00.827Z,14.14
2022-10-22T21:11:27.368Z,14.13
2022-10-22T21:13:53.875Z,14.07
2022-10-22T21:16:20.487Z,14.13
2022-10-22T21:18:47.325Z,14.11
2022-10-22T21:21:14.029Z,14.09
2022-10-22T21:23:40.507Z,14.06
2022-10-22T21:26:07.094Z,14.10
2022-10-22T21:28:35.747Z,14.11
2022-10-22T21:31:04.255Z,13.99
2022-10-22T21:33:31.298Z,13.97
2022-10-22T21:35:58.446Z,13.90
2022-10-22T21:38:25.455Z,13.83
2022-10-22T21:40:52.553Z,13.77
2022-10-22T21:43:19.407Z,13.62
2022-10-22T21:45:45.919Z,13.52
2022-10-22T21:48:15.394Z,13.43
2022-10-22T21:50:43.770Z,13.42
2022-10-22T21:53:12.125Z,13.43
2022-10-22T21:55:42.036Z,13.41
2022-10-22T21:58:08.678Z,13.34
2022-10-22T22:00:35.582Z,13.31
2022-10-22T22:03:02.221Z,13.22
2022-10-22T22:05:29.223Z,13.24
2022-10-22T22:07:55.713Z,13.08
2022-10-22T22:10:22.252Z,13.15
2022-10-22T22:12:51.162Z,13.11
2022-10-22T22:15:19.001Z,13.11
2022-10-22T22:17:45.599Z,13.05
2022-10-22T22:20:12.144Z,13.15
2022-10-22T22:22:40.037Z,13.11
2022-10-22T22:25:06.980Z,12.98
2022-10-22T22:27:33.482Z,12.90
2022-10-22T22:30:00.024Z,12.84
2022-10-22T22:32:26.578Z,12.88
2022-10-22T22:34:53.095Z,12.77
2022-10-22T22:37:19.557Z,12.73
2022-10-22T22:39:46.011Z,12.71
2022-10-22T22:42:12.489Z,12.73
2022-10-22T22:44:39.235Z,12.59
2022-10-22T22:47:05.725Z,12.46
2022-10-22T22:49:33.134Z,12.34
2022-10-22T22:51:59.719Z,12.19
2022-10-22T22:54:26.224Z,12.09
2022-10-22T22:56:52.705Z,11.98
2022-10-22T22:59:19.432Z,11.91
2022-10-22T23:01:48.233Z,12.06
2022-10-22T23:04:19.326Z,12.03
2022-10-22T23:06:46.258Z,12.29
2022-10-22T23:09:14.491Z,12.25
2022-10-22T23:11:42.330Z,12.16
2022-10-22T23:14:13.638Z,12.09
2022-10-22T23:16:42.468Z,12.09
2022-10-22T23:19:09.997Z,11.98
2022-10-22T23:21:39.042Z,11.96
2022-10-22T23:24:11.565Z,11.85
2022-10-22T23:26:44.699Z,11.81
2022-10-22T23:29:17.108Z,11.77
2022-10-22T23:31:44.870Z,11.72
2022-10-22T23:34:15.892Z,11.74
2022-10-22T23:36:42.694Z,11.79
2022-10-22T23:39:15.174Z,11.67
2022-10-22T23:41:41.703Z,11.68
2022-10-22T23:44:09.776Z,11.70
2022-10-22T23:46:38.464Z,11.77
2022-10-22T23:49:06.296Z,11.77
2022-10-22T23:51:33.081Z,11.74
2022-10-22T23:54:02.256Z,11.65
2022-10-22T23:56:29.283Z,11.68
2022-10-22T23:58:56.597Z,11.78
